Terminal Aerodrome Forecast
Issued by NWS

Home | Current Version | Previous Version | Text Only | Print | Product List | Glossary On
Versions: 1 2 3 4 5 6 7 8 9 10 11 12 13 14 15 16 17 18
000
FTUS45 KRIW 231837 CCB
TAFPNA
TAF COR
KPNA 231837Z 2319/2418 15007KT 2SM -SN SCT008 OVC010
      TEMPO 2319/2323 1/2SM SN OVC008
     FM240400 VRB05KT P6SM VCSH SCT009 OVC020
      AMD LTD TO CLD VIS AND WIND=

USA.gov is the U.S. government's official web portal to all federal, state and local government web resources and services.